createdAt,value
2019-01-29T00:00:07.262Z,98.98
2019-01-29T00:02:36.466Z,98.71
2019-01-29T00:05:05.655Z,98.92
2019-01-29T00:07:33.640Z,99.10
2019-01-29T00:10:01.581Z,99.26
2019-01-29T00:12:29.939Z,99.01
2019-01-29T00:14:58.247Z,99.01
2019-01-29T00:17:26.244Z,98.92
2019-01-29T00:19:54.488Z,99.01
2019-01-29T00:22:22.280Z,99.13
2019-01-29T00:24:50.228Z,99.17
2019-01-29T00:27:18.000Z,99.01
2019-01-29T00:29:45.860Z,99.28
2019-01-29T00:32:13.842Z,99.36
2019-01-29T00:34:41.961Z,99.43
2019-01-29T00:37:09.658Z,99.50
2019-01-29T00:39:37.715Z,99.60
2019-01-29T00:42:05.719Z,99.59
2019-01-29T00:44:33.693Z,99.57
2019-01-29T00:47:01.624Z,99.57
2019-01-29T00:49:29.574Z,99.57
2019-01-29T00:51:57.595Z,99.37
2019-01-29T00:54:25.593Z,99.16
2019-01-29T00:56:53.690Z,99.19
2019-01-29T00:59:21.892Z,99.37
2019-01-29T01:01:49.778Z,99.36
2019-01-29T01:04:17.698Z,99.07
2019-01-29T01:06:46.007Z,99.05
2019-01-29T01:09:14.061Z,98.86
2019-01-29T01:11:42.074Z,98.91
2019-01-29T01:14:10.001Z,99.12
2019-01-29T01:16:37.789Z,99.18
2019-01-29T01:19:06.193Z,99.34
2019-01-29T01:21:34.329Z,99.09
2019-01-29T01:24:02.270Z,98.80
2019-01-29T01:26:30.181Z,98.86
2019-01-29T01:28:58.143Z,99.21
2019-01-29T01:31:26.197Z,99.30
2019-01-29T01:33:54.248Z,99.43
2019-01-29T01:36:22.385Z,99.32
2019-01-29T01:38:50.347Z,99.42
2019-01-29T01:41:20.085Z,99.50
2019-01-29T01:43:47.976Z,99.85
2019-01-29T01:46:16.025Z,99.98
2019-01-29T01:48:44.004Z,99.92
2019-01-29T01:51:12.062Z,99.94
2019-01-29T01:53:40.033Z,99.85
2019-01-29T01:56:07.983Z,99.86
2019-01-29T01:58:39.310Z,99.56
2019-01-29T02:01:07.475Z,99.44
2019-01-29T02:03:35.697Z,99.47
2019-01-29T02:06:04.157Z,99.56
2019-01-29T02:08:32.133Z,99.58
2019-01-29T02:11:00.186Z,98.79
2019-01-29T02:13:29.517Z,98.65
2019-01-29T02:15:57.574Z,98.52
2019-01-29T02:18:25.538Z,98.52
2019-01-29T02:20:53.571Z,98.44
2019-01-29T02:23:21.810Z,98.25
2019-01-29T02:25:49.697Z,98.31
2019-01-29T02:28:17.806Z,98.06
2019-01-29T02:30:45.727Z,98.27
2019-01-29T02:33:13.601Z,98.69
2019-01-29T02:35:41.556Z,98.87
2019-01-29T02:38:09.449Z,99.11
2019-01-29T02:40:37.512Z,98.97
2019-01-29T02:43:05.270Z,98.67
2019-01-29T02:45:33.261Z,98.94
2019-01-29T02:48:01.291Z,99.25
2019-01-29T02:50:29.386Z,99.31
2019-01-29T02:52:57.369Z,99.26
2019-01-29T02:55:25.209Z,99.28
2019-01-29T02:57:53.412Z,99.25
2019-01-29T03:00:23.214Z,99.17
2019-01-29T03:02:51.503Z,99.03
2019-01-29T03:05:19.452Z,99.18
2019-01-29T03:07:47.540Z,99.14
2019-01-29T03:10:17.382Z,99.00
2019-01-29T03:12:46.447Z,98.89
2019-01-29T03:15:16.764Z,98.89
2019-01-29T03:17:44.848Z,98.51
2019-01-29T03:20:13.123Z,98.61
2019-01-29T03:22:41.173Z,98.68
2019-01-29T03:25:09.628Z,98.56
2019-01-29T03:27:37.497Z,98.43
2019-01-29T03:30:06.293Z,98.65
2019-01-29T03:32:34.331Z,98.54
2019-01-29T03:35:02.562Z,98.43
2019-01-29T03:37:30.738Z,98.63
2019-01-29T03:39:58.688Z,98.73
2019-01-29T03:42:26.612Z,98.87
2019-01-29T03:44:54.533Z,98.91
2019-01-29T03:47:22.493Z,98.87
2019-01-29T03:49:50.703Z,98.82
2019-01-29T03:52:18.744Z,98.90
2019-01-29T03:54:47.161Z,99.06
2019-01-29T03:57:15.321Z,98.95
2019-01-29T03:59:43.463Z,99.00
2019-01-29T04:02:11.578Z,99.15
2019-01-29T04:04:39.755Z,99.22
2019-01-29T04:07:07.566Z,98.92
2019-01-29T04:09:35.579Z,98.82
2019-01-29T04:12:04.665Z,98.54
2019-01-29T04:14:32.773Z,98.23
2019-01-29T04:17:00.877Z,98.23
2019-01-29T04:19:28.962Z,98.39
2019-01-29T04:21:56.972Z,98.33
2019-01-29T04:24:25.122Z,98.48
2019-01-29T04:26:52.977Z,98.37
2019-01-29T04:29:20.978Z,98.13
2019-01-29T04:31:48.945Z,98.33
2019-01-29T04:34:16.876Z,98.28
2019-01-29T04:36:45.188Z,98.33
2019-01-29T04:39:14.093Z,98.52
2019-01-29T04:41:42.428Z,98.67
2019-01-29T04:44:10.480Z,98.73
2019-01-29T04:46:38.733Z,98.60
2019-01-29T04:49:06.977Z,98.44
2019-01-29T04:51:34.955Z,98.50
2019-01-29T04:54:02.946Z,98.29
2019-01-29T04:56:30.934Z,98.15
2019-01-29T04:58:59.086Z,97.99
2019-01-29T05:01:27.245Z,97.91
2019-01-29T05:03:55.131Z,98.06
2019-01-29T05:06:23.195Z,98.09
2019-01-29T05:08:51.141Z,98.06
2019-01-29T05:11:19.189Z,97.81
2019-01-29T05:13:47.303Z,97.97
2019-01-29T05:16:15.338Z,98.30
2019-01-29T05:18:43.845Z,98.47
2019-01-29T05:21:11.910Z,98.51
2019-01-29T05:23:39.959Z,98.30
2019-01-29T05:26:08.074Z,98.33
2019-01-29T05:28:36.126Z,98.14
2019-01-29T05:31:04.398Z,97.96
2019-01-29T05:33:32.345Z,97.99
2019-01-29T05:36:00.251Z,98.00
2019-01-29T05:38:28.188Z,97.75
2019-01-29T05:40:56.249Z,98.03
2019-01-29T05:43:24.382Z,98.43
2019-01-29T05:45:52.425Z,98.54
2019-01-29T05:48:20.502Z,98.14
2019-01-29T05:50:48.559Z,98.62
2019-01-29T05:53:16.621Z,98.71
2019-01-29T05:55:44.492Z,99.02
2019-01-29T05:58:12.500Z,99.25
2019-01-29T06:00:41.285Z,99.34
2019-01-29T06:03:10.905Z,99.49
2019-01-29T06:05:40.435Z,99.51
2019-01-29T06:08:08.639Z,99.15
2019-01-29T06:10:36.805Z,99.01
2019-01-29T06:13:05.155Z,99.12
2019-01-29T06:15:33.232Z,99.08
2019-01-29T06:18:01.264Z,98.74
2019-01-29T06:20:29.374Z,98.82
2019-01-29T06:22:57.404Z,99.05
2019-01-29T06:25:25.517Z,99.03
2019-01-29T06:27:54.771Z,99.22
2019-01-29T06:30:23.015Z,99.41
2019-01-29T06:32:51.921Z,99.17
2019-01-29T06:35:20.145Z,99.05
2019-01-29T06:37:48.430Z,98.75
2019-01-29T06:40:18.450Z,98.82
2019-01-29T06:42:46.496Z,98.89
2019-01-29T06:45:14.896Z,98.94
2019-01-29T06:47:42.809Z,98.39
2019-01-29T06:50:13.262Z,98.49
2019-01-29T06:52:41.230Z,98.64
2019-01-29T06:55:11.037Z,98.53
2019-01-29T06:57:39.017Z,98.25
2019-01-29T07:00:09.333Z,98.00
2019-01-29T07:02:37.220Z,97.51
2019-01-29T07:05:07.132Z,97.52
2019-01-29T07:07:35.559Z,97.54
2019-01-29T07:10:05.464Z,97.57
2019-01-29T07:12:33.711Z,97.75
2019-01-29T07:15:01.545Z,98.26
2019-01-29T07:17:34.237Z,98.07
2019-01-29T07:20:05.037Z,97.71
2019-01-29T07:22:32.841Z,97.41
2019-01-29T07:25:01.202Z,96.87
2019-01-29T07:27:29.119Z,96.09
2019-01-29T07:29:57.062Z,95.24
2019-01-29T07:32:25.040Z,95.19
2019-01-29T07:34:52.992Z,95.00
2019-01-29T07:37:22.088Z,95.28
2019-01-29T07:39:50.348Z,95.11
2019-01-29T07:42:19.238Z,95.04
2019-01-29T07:44:47.330Z,95.05
2019-01-29T07:47:15.377Z,94.58
2019-01-29T07:49:43.447Z,94.78
2019-01-29T07:52:12.839Z,95.18
2019-01-29T07:54:40.959Z,94.99
2019-01-29T07:57:09.303Z,94.30
2019-01-29T07:59:37.288Z,93.94
2019-01-29T08:02:06.204Z,93.46
2019-01-29T08:04:34.261Z,93.89
2019-01-29T08:07:02.366Z,93.57
2019-01-29T08:09:32.021Z,93.37
2019-01-29T08:11:59.989Z,93.22
2019-01-29T08:14:28.078Z,93.07
2019-01-29T08:16:55.816Z,93.39
2019-01-29T08:19:23.919Z,93.28
2019-01-29T08:21:51.982Z,91.59
2019-01-29T08:24:21.001Z,89.52
2019-01-29T08:26:51.854Z,88.81
2019-01-29T08:29:19.727Z,87.43
2019-01-29T08:31:48.706Z,85.88
2019-01-29T08:34:16.666Z,83.99
2019-01-29T08:36:44.609Z,82.69
2019-01-29T08:39:12.768Z,82.41
2019-01-29T08:41:41.036Z,80.86
2019-01-29T08:44:09.038Z,79.29
2019-01-29T08:46:37.223Z,78.43
2019-01-29T08:49:05.178Z,77.91
2019-01-29T08:51:33.193Z,75.61
2019-01-29T08:54:01.123Z,75.70
2019-01-29T08:56:29.117Z,74.08
2019-01-29T08:58:57.184Z,72.71
2019-01-29T09:01:25.081Z,73.22
2019-01-29T09:03:53.084Z,72.66
2019-01-29T09:06:21.217Z,71.54
2019-01-29T09:08:49.082Z,70.55
2019-01-29T09:11:20.517Z,70.78
2019-01-29T09:13:48.583Z,70.55
2019-01-29T09:16:17.580Z,69.18
2019-01-29T09:18:45.709Z,67.42
2019-01-29T09:21:13.962Z,68.33
2019-01-29T09:23:41.907Z,68.83
2019-01-29T09:26:10.088Z,67.38
2019-01-29T09:28:38.188Z,67.63
2019-01-29T09:31:08.116Z,66.99
2019-01-29T09:33:36.135Z,66.38
2019-01-29T09:36:04.294Z,66.14
2019-01-29T09:38:32.149Z,63.67
2019-01-29T09:41:00.308Z,62.21
2019-01-29T09:43:28.209Z,62.07
2019-01-29T09:46:09.220Z,62.70
2019-01-29T09:48:37.212Z,60.73
2019-01-29T09:51:05.185Z,58.20
2019-01-29T09:53:33.366Z,57.13
2019-01-29T09:56:01.496Z,55.33
2019-01-29T09:58:29.329Z,57.68
2019-01-29T10:00:57.402Z,52.62
2019-01-29T10:03:25.310Z,54.47
2019-01-29T10:05:53.336Z,50.79
2019-01-29T10:08:21.440Z,51.76
2019-01-29T10:10:49.497Z,51.29
2019-01-29T10:13:17.360Z,52.47
2019-01-29T10:15:45.311Z,53.50
2019-01-29T10:18:13.285Z,53.25
2019-01-29T10:20:41.167Z,54.18
2019-01-29T10:23:09.229Z,49.03
2019-01-29T10:25:38.235Z,45.56
2019-01-29T10:28:06.209Z,51.24
2019-01-29T10:30:34.144Z,51.12
2019-01-29T10:33:02.135Z,53.49
2019-01-29T10:35:30.193Z,51.87
2019-01-29T10:37:58.101Z,53.12
2019-01-29T10:40:26.237Z,44.61
2019-01-29T10:42:54.861Z,52.27
2019-01-29T10:45:24.099Z,51.05
2019-01-29T10:47:51.896Z,50.78
2019-01-29T10:50:21.265Z,51.30
2019-01-29T10:52:49.109Z,47.47
2019-01-29T10:55:16.863Z,44.92
2019-01-29T10:57:44.928Z,46.53
2019-01-29T11:00:26.974Z,41.93
2019-01-29T11:02:54.639Z,41.69
2019-01-29T11:05:22.923Z,43.52
2019-01-29T11:07:50.586Z,42.30
2019-01-29T11:10:18.625Z,42.04
2019-01-29T11:12:46.518Z,43.16
2019-01-29T11:15:20.005Z,41.01
2019-01-29T11:17:48.197Z,42.40
2019-01-29T11:20:16.936Z,44.53
2019-01-29T11:22:45.314Z,43.08
2019-01-29T11:25:19.520Z,45.99
2019-01-29T11:27:49.107Z,45.93
2019-01-29T11:30:20.926Z,45.59
2019-01-29T11:32:49.120Z,44.24
2019-01-29T11:35:17.114Z,43.33
2019-01-29T11:37:47.993Z,43.18
2019-01-29T11:40:18.312Z,44.04
2019-01-29T11:42:45.999Z,41.98
2019-01-29T11:45:26.100Z,42.76
2019-01-29T11:47:53.703Z,41.76
2019-01-29T11:50:21.415Z,41.87
2019-01-29T11:52:50.813Z,40.87
2019-01-29T11:55:18.507Z,40.91
2019-01-29T11:57:48.867Z,41.65
2019-01-29T12:00:23.680Z,42.12
2019-01-29T12:02:51.457Z,43.34
2019-01-29T12:05:19.214Z,43.96
2019-01-29T12:07:47.061Z,44.78
2019-01-29T12:10:15.239Z,43.11
2019-01-29T12:12:43.270Z,44.10
2019-01-29T12:15:12.859Z,43.83
2019-01-29T12:17:40.856Z,45.12
2019-01-29T12:20:09.718Z,44.29
2019-01-29T12:22:37.643Z,44.38
2019-01-29T12:25:06.928Z,43.42
2019-01-29T12:27:34.613Z,41.90
2019-01-29T12:30:02.439Z,42.50
2019-01-29T12:32:30.127Z,44.25
2019-01-29T12:34:57.731Z,46.85
2019-01-29T12:37:25.378Z,46.40
2019-01-29T12:39:54.472Z,43.91
2019-01-29T12:42:24.619Z,46.27
2019-01-29T12:44:52.172Z,48.30
2019-01-29T12:47:20.255Z,46.84
2019-01-29T12:49:48.192Z,47.02
2019-01-29T12:52:28.182Z,43.74
2019-01-29T12:54:56.298Z,43.60
2019-01-29T12:57:24.302Z,43.50
2019-01-29T12:59:52.266Z,42.57
2019-01-29T13:02:20.146Z,43.36
2019-01-29T13:04:48.286Z,41.87
2019-01-29T13:07:16.318Z,42.53
2019-01-29T13:09:44.261Z,42.46
2019-01-29T13:12:12.399Z,41.81
2019-01-29T13:14:40.486Z,42.45
2019-01-29T13:17:08.556Z,42.27
2019-01-29T13:19:36.358Z,42.25
2019-01-29T13:22:04.078Z,42.74
2019-01-29T13:24:31.877Z,42.23
2019-01-29T13:26:59.599Z,41.94
2019-01-29T13:29:27.279Z,41.99
2019-01-29T13:31:55.014Z,42.87
2019-01-29T13:34:23.588Z,42.60
2019-01-29T13:36:51.590Z,44.09
2019-01-29T13:39:19.927Z,42.65
2019-01-29T13:41:48.042Z,42.67
2019-01-29T13:44:16.141Z,41.20
2019-01-29T13:46:44.143Z,41.63
2019-01-29T13:49:12.173Z,43.04
2019-01-29T13:51:40.330Z,42.62
2019-01-29T13:54:08.281Z,42.16
2019-01-29T13:56:38.917Z,43.23
2019-01-29T13:59:06.339Z,44.02
2019-01-29T14:01:34.375Z,42.15
2019-01-29T14:04:06.340Z,43.75
2019-01-29T14:06:32.614Z,43.14
2019-01-29T14:09:00.555Z,43.11
2019-01-29T14:11:28.512Z,43.56
2019-01-29T14:13:56.545Z,43.40
2019-01-29T14:16:24.819Z,44.49
2019-01-29T14:18:52.922Z,43.99
2019-01-29T14:21:21.343Z,45.48
2019-01-29T14:23:49.302Z,46.36
2019-01-29T14:26:17.699Z,44.68
2019-01-29T14:28:45.716Z,46.09
2019-01-29T14:31:13.840Z,45.50
2019-01-29T14:33:41.827Z,45.91
2019-01-29T14:36:16.586Z,44.52
2019-01-29T14:39:09.165Z,44.77
2019-01-29T14:41:37.459Z,56.87
2019-01-29T14:44:08.480Z,59.49
2019-01-29T14:46:36.548Z,60.37
2019-01-29T14:49:04.720Z,60.11
2019-01-29T14:51:32.772Z,60.35
2019-01-29T14:54:00.913Z,60.73
2019-01-29T14:56:29.344Z,61.35
2019-01-29T14:58:57.459Z,62.15
2019-01-29T15:01:25.760Z,62.88
2019-01-29T15:03:53.916Z,63.82
2019-01-29T15:06:22.047Z,64.55
2019-01-29T15:08:50.298Z,65.61
2019-01-29T15:11:19.132Z,66.63
2019-01-29T15:13:47.040Z,67.26
2019-01-29T15:16:30.203Z,67.85
2019-01-29T15:19:03.641Z,68.28
2019-01-29T15:21:37.776Z,68.64
2019-01-29T15:24:01.759Z,69.48
2019-01-29T15:26:29.611Z,70.12
2019-01-29T15:28:57.637Z,70.56
2019-01-29T15:31:25.653Z,70.59
2019-01-29T15:33:53.479Z,71.14
2019-01-29T15:36:21.465Z,71.26
2019-01-29T15:38:49.351Z,71.64
2019-01-29T15:41:17.319Z,71.57
2019-01-29T15:43:45.307Z,72.03
2019-01-29T15:46:13.440Z,72.23
2019-01-29T15:48:41.142Z,72.65
2019-01-29T15:51:08.967Z,72.56
2019-01-29T15:53:37.000Z,72.86
2019-01-29T15:56:05.034Z,72.72
2019-01-29T15:58:32.912Z,72.94
2019-01-29T16:01:00.899Z,73.04
2019-01-29T16:03:29.868Z,73.16
2019-01-29T16:05:57.916Z,73.26
2019-01-29T16:08:26.013Z,73.11
2019-01-29T16:10:54.019Z,73.33
2019-01-29T16:13:22.097Z,73.38
2019-01-29T16:15:50.040Z,73.60
2019-01-29T16:18:18.229Z,73.42
2019-01-29T16:20:46.238Z,73.53
2019-01-29T16:23:14.444Z,73.61
2019-01-29T16:25:42.581Z,73.78
2019-01-29T16:28:10.560Z,73.90
2019-01-29T16:30:38.736Z,74.25
2019-01-29T16:33:06.964Z,74.53
2019-01-29T16:35:35.212Z,74.41
2019-01-29T16:38:03.834Z,74.79
2019-01-29T16:40:32.134Z,75.13
2019-01-29T16:43:00.182Z,75.06
2019-01-29T16:45:29.941Z,74.88
2019-01-29T16:47:58.114Z,75.21
2019-01-29T16:50:28.104Z,75.82
2019-01-29T16:52:56.224Z,75.65
2019-01-29T16:55:24.601Z,75.52
2019-01-29T16:57:52.910Z,75.58
2019-01-29T17:00:25.489Z,75.91
2019-01-29T17:02:53.534Z,76.74
2019-01-29T17:05:21.799Z,76.53
2019-01-29T17:07:49.833Z,77.23
2019-01-29T17:10:18.320Z,77.75
2019-01-29T17:12:46.172Z,78.25
2019-01-29T17:15:19.276Z,78.02
2019-01-29T17:17:47.286Z,78.16
2019-01-29T17:20:17.843Z,77.89
2019-01-29T17:22:45.925Z,78.36
2019-01-29T17:25:13.839Z,78.46
2019-01-29T17:27:41.759Z,78.73
2019-01-29T17:30:14.193Z,78.86
2019-01-29T17:32:42.139Z,78.89
2019-01-29T17:35:10.223Z,79.40
2019-01-29T17:37:38.121Z,79.94
2019-01-29T17:40:07.076Z,80.31
2019-01-29T17:42:35.071Z,80.48
2019-01-29T17:45:03.033Z,81.56
2019-01-29T17:47:32.077Z,81.47
2019-01-29T17:50:01.724Z,81.53
2019-01-29T17:52:29.559Z,81.77
2019-01-29T17:54:57.668Z,81.92
2019-01-29T17:57:25.729Z,81.94
2019-01-29T17:59:53.597Z,82.31
2019-01-29T18:02:21.433Z,82.96
2019-01-29T18:04:49.332Z,83.31
2019-01-29T18:07:17.340Z,83.77
2019-01-29T18:09:45.359Z,84.05
2019-01-29T18:12:13.394Z,84.00
2019-01-29T18:14:41.495Z,83.98
2019-01-29T18:17:09.566Z,83.99
2019-01-29T18:19:37.591Z,83.73
2019-01-29T18:22:05.713Z,84.06
2019-01-29T18:24:33.772Z,84.39
2019-01-29T18:27:01.813Z,84.58
2019-01-29T18:29:29.832Z,84.19
2019-01-29T18:31:57.988Z,84.36
2019-01-29T18:34:26.133Z,84.55
2019-01-29T18:36:54.141Z,84.06
2019-01-29T18:39:23.655Z,84.63
2019-01-29T18:41:51.697Z,84.96
2019-01-29T18:44:19.643Z,85.56
2019-01-29T18:46:47.666Z,85.59
2019-01-29T18:49:15.717Z,85.44
2019-01-29T18:51:43.822Z,85.09
2019-01-29T18:54:11.865Z,85.53
2019-01-29T18:56:39.959Z,85.66
2019-01-29T18:59:08.023Z,85.66
2019-01-29T19:01:36.313Z,86.10
2019-01-29T19:04:08.472Z,86.18
2019-01-29T19:06:36.648Z,86.39
2019-01-29T19:09:06.979Z,86.49
2019-01-29T19:11:34.903Z,86.83
2019-01-29T19:14:03.164Z,86.80
2019-01-29T19:16:31.178Z,87.16
2019-01-29T19:18:59.244Z,87.68
2019-01-29T19:21:27.350Z,87.82
2019-01-29T19:23:55.282Z,87.78
2019-01-29T19:26:23.204Z,87.62
2019-01-29T19:28:51.307Z,87.78
2019-01-29T19:31:19.344Z,87.75
2019-01-29T19:33:47.401Z,87.95
2019-01-29T19:36:15.306Z,88.59
2019-01-29T19:38:43.235Z,89.00
2019-01-29T19:41:13.905Z,89.40
2019-01-29T19:43:42.030Z,89.41
2019-01-29T19:46:09.863Z,89.01
2019-01-29T19:48:38.106Z,88.98
2019-01-29T19:51:06.014Z,88.86
2019-01-29T19:53:34.109Z,88.59
2019-01-29T19:56:02.091Z,88.64
2019-01-29T19:58:32.346Z,88.33
2019-01-29T20:01:00.033Z,88.23
2019-01-29T20:03:27.988Z,88.21
2019-01-29T20:05:56.443Z,88.24
2019-01-29T20:08:24.334Z,88.24
2019-01-29T20:10:52.263Z,88.50
2019-01-29T20:13:20.255Z,88.16
2019-01-29T20:15:48.302Z,88.06
2019-01-29T20:18:16.419Z,88.14
2019-01-29T20:20:44.349Z,88.38
2019-01-29T20:23:12.255Z,88.27
2019-01-29T20:25:40.178Z,88.16
2019-01-29T20:28:09.125Z,87.94
2019-01-29T20:30:38.183Z,88.02
2019-01-29T20:33:06.724Z,88.07
2019-01-29T20:35:35.183Z,88.65
2019-01-29T20:38:03.349Z,88.39
2019-01-29T20:40:31.321Z,88.48
2019-01-29T20:42:59.304Z,88.65
2019-01-29T20:45:27.360Z,89.00
2019-01-29T20:47:55.359Z,89.30
2019-01-29T20:50:28.821Z,89.74
2019-01-29T20:52:57.804Z,89.85
2019-01-29T20:55:25.881Z,90.20
2019-01-29T20:57:53.930Z,90.24
2019-01-29T21:00:24.971Z,90.30
2019-01-29T21:02:52.896Z,90.62
2019-01-29T21:05:21.219Z,90.37
2019-01-29T21:07:49.036Z,90.51
2019-01-29T21:10:18.474Z,90.50
2019-01-29T21:12:46.524Z,90.50
2019-01-29T21:15:15.826Z,90.60
2019-01-29T21:17:44.036Z,90.77
2019-01-29T21:20:14.444Z,90.40
2019-01-29T21:22:42.592Z,90.38
2019-01-29T21:25:10.684Z,90.68
2019-01-29T21:27:38.928Z,90.71
2019-01-29T21:30:15.271Z,91.15
2019-01-29T21:32:43.364Z,91.28
2019-01-29T21:35:11.434Z,91.93
2019-01-29T21:37:39.522Z,92.14
2019-01-29T21:40:08.048Z,92.02
2019-01-29T21:42:36.181Z,92.20
2019-01-29T21:45:05.562Z,91.95
2019-01-29T21:47:33.695Z,92.40
2019-01-29T21:50:11.374Z,92.45
2019-01-29T21:52:31.792Z,92.37
2019-01-29T21:54:59.645Z,91.85
2019-01-29T21:57:27.733Z,91.81
2019-01-29T21:59:55.980Z,92.04
2019-01-29T22:02:25.180Z,92.00
2019-01-29T22:04:53.398Z,91.91
2019-01-29T22:07:22.564Z,91.71
2019-01-29T22:09:50.455Z,91.76
2019-01-29T22:12:18.300Z,91.69
2019-01-29T22:14:48.161Z,91.79
2019-01-29T22:17:16.251Z,91.60
2019-01-29T22:19:44.201Z,91.57
2019-01-29T22:22:12.245Z,91.75
2019-01-29T22:24:40.242Z,91.80
2019-01-29T22:27:08.052Z,91.71
2019-01-29T22:29:36.172Z,91.83
2019-01-29T22:32:06.354Z,91.53
2019-01-29T22:34:33.957Z,91.86
2019-01-29T22:37:01.598Z,91.98
2019-01-29T22:39:29.698Z,92.30
2019-01-29T22:41:57.758Z,92.55
2019-01-29T22:44:25.706Z,92.56
2019-01-29T22:46:53.671Z,92.52
2019-01-29T22:49:21.740Z,92.63
2019-01-29T22:51:49.814Z,92.13
2019-01-29T22:54:17.894Z,92.63
2019-01-29T22:56:45.793Z,92.62
2019-01-29T22:59:14.025Z,92.55
2019-01-29T23:01:42.258Z,92.30
2019-01-29T23:04:21.869Z,92.34
2019-01-29T23:07:10.904Z,92.58
2019-01-29T23:09:38.895Z,92.69
2019-01-29T23:12:06.702Z,92.37
2019-01-29T23:14:34.512Z,92.44
2019-01-29T23:17:02.603Z,92.13
2019-01-29T23:19:30.588Z,92.61
2019-01-29T23:21:58.440Z,92.84
2019-01-29T23:24:26.491Z,92.85
2019-01-29T23:26:54.521Z,93.19
2019-01-29T23:29:22.536Z,93.80
2019-01-29T23:31:50.567Z,93.38
2019-01-29T23:34:18.474Z,93.31
2019-01-29T23:36:46.394Z,93.37
2019-01-29T23:39:14.424Z,93.25
2019-01-29T23:41:42.439Z,93.50
2019-01-29T23:44:10.537Z,93.80
2019-01-29T23:46:38.584Z,93.83
2019-01-29T23:49:06.765Z,93.83
2019-01-29T23:51:34.831Z,93.59
2019-01-29T23:54:03.075Z,93.78
2019-01-29T23:56:30.956Z,93.61
2019-01-29T23:58:59.078Z,93.77
